Time;durP1;ratioP1;P1;durP2;ratioP2;P2;SDS_P1;SDS_P2;PMS_P1;PMS_P2;Temp;Humidity;BMP_temperature;BMP_pressure;BME280_temperature;BME280_humidity;BME280_pressure;Samples;Min_cycle;Max_cycle;Signal;HPM_P1;HPM_P2
2022/06/08 00:01:22;;;;;;;8.03;4.60;;;;;;;-145.69;100.00;71639.19;5094749;28;20198;-78
2022/06/08 00:03:54;;;;;;;10.43;4.47;;;;;;;-145.69;100.00;71619.28;5094859;28;20202;-78
2022/06/08 00:06:21;;;;;;;11.77;4.77;;;;;;;-145.69;100.00;71633.22;5094589;28;20715;-78
2022/06/08 00:08:48;;;;;;;8.63;4.97;;;;;;;-145.69;100.00;71635.22;5094842;28;20198;-78
2022/06/08 00:11:15;;;;;;;13.93;6.88;;;;;;;-145.69;100.00;71637.19;5093545;28;20482;-78
2022/06/08 00:13:42;;;;;;;19.87;5.43;;;;;;;-145.69;100.00;71643.19;5094587;28;20202;-78
2022/06/08 00:16:09;;;;;;;11.27;4.93;;;;;;;-145.69;100.00;71645.16;5094736;28;20284;-78
2022/06/08 00:18:36;;;;;;;16.38;5.20;;;;;;;-145.69;100.00;71641.19;5094204;28;20486;-78
2022/06/08 00:21:04;;;;;;;8.60;4.60;;;;;;;-145.69;100.00;71645.16;5094511;28;20210;-78
2022/06/08 00:23:31;;;;;;;7.37;4.63;;;;;;;-145.69;100.00;71645.16;5094345;28;20228;-78
2022/06/08 00:25:57;;;;;;;9.83;4.27;;;;;;;-145.69;100.00;71645.16;5082853;28;20627;-78
2022/06/08 00:28:23;;;;;;;9.07;4.93;;;;;;;-145.69;100.00;71637.19;5089520;28;20194;-78
2022/06/08 00:30:50;;;;;;;12.17;5.23;;;;;;;-145.69;100.00;71639.19;5094374;28;20244;-78
2022/06/08 00:33:17;;;;;;;14.07;4.83;;;;;;;-145.69;100.00;71641.19;5094041;28;20194;-77
2022/06/08 00:35:43;;;;;;;10.97;5.03;;;;;;;-145.69;100.00;71649.16;5094542;28;20221;-77
2022/06/08 00:38:11;;;;;;;14.67;5.00;;;;;;;-145.69;100.00;71659.09;5094176;28;20277;-78
2022/06/08 00:40:48;;;;;;;17.23;4.53;;;;;;;-145.69;100.00;71661.09;5094427;28;20202;-78
2022/06/08 00:43:15;;;;;;;10.37;4.90;;;;;;;-145.69;100.00;71651.13;5094305;28;20266;-77
2022/06/08 00:45:42;;;;;;;9.10;4.73;;;;;;;-145.69;100.00;71653.13;5094041;28;20229;-77
2022/06/08 00:48:12;;;;;;;14.47;4.60;;;;;;;-145.69;100.00;71671.03;5093742;28;20198;-78
2022/06/08 00:50:42;;;;;;;11.87;4.33;;;;;;;-145.69;100.00;71667.06;5094057;28;20202;-77
2022/06/08 00:53:12;;;;;;;10.20;4.50;;;;;;;-145.69;100.00;71680.97;5094369;28;20251;-77
2022/06/08 00:55:41;;;;;;;9.00;4.93;;;;;;;-145.69;100.00;71673.03;5093796;28;20210;-77
2022/06/08 00:58:12;;;;;;;8.83;4.63;;;;;;;-145.69;100.00;71680.97;5093576;28;20263;-77
2022/06/08 01:00:40;;;;;;;14.10;4.30;;;;;;;-145.69;100.00;71677.00;5112826;28;20637;-77
2022/06/08 01:03:08;;;;;;;10.90;4.43;;;;;;;-145.69;100.00;71675.00;5113741;28;20603;-77
2022/06/08 01:05:39;;;;;;;12.03;4.47;;;;;;;-145.69;100.00;71671.03;5114101;28;20224;-77
2022/06/08 01:08:18;;;;;;;10.73;4.40;;;;;;;-145.69;100.00;71684.97;5114036;28;20210;-77
2022/06/08 01:10:48;;;;;;;11.60;4.37;;;;;;;-145.69;100.00;71686.97;5113952;28;20206;-77
2022/06/08 01:13:14;;;;;;;14.63;4.50;;;;;;;-145.69;100.00;71694.91;5113811;28;20251;-77
2022/06/08 01:15:42;;;;;;;8.67;4.90;;;;;;;-145.69;100.00;71688.94;5114149;28;20684;-78
2022/06/08 01:18:09;;;;;;;9.00;4.80;;;;;;;-145.69;100.00;71686.97;5112271;27;20587;-77
2022/06/08 01:20:36;;;;;;;13.73;4.70;;;;;;;-145.69;100.00;71667.06;5106092;28;20205;-77
2022/06/08 01:23:04;;;;;;;11.90;5.33;;;;;;;-145.69;100.00;71682.97;5082802;28;20198;-78
2022/06/08 01:25:37;;;;;;;9.90;4.50;;;;;;;-145.69;100.00;71684.97;5073033;28;20318;-78
2022/06/08 01:28:18;;;;;;;11.50;4.77;;;;;;;-145.69;100.00;71684.97;5073383;28;20255;-78
2022/06/08 01:30:53;;;;;;;9.00;4.77;;;;;;;-145.69;100.00;71680.97;5073294;28;20286;-76
2022/06/08 01:33:51;;;;;;;11.03;4.77;;;;;;;-145.69;100.00;71688.94;5073306;28;20649;-77
2022/06/08 01:36:34;;;;;;;17.63;4.80;;;;;;;-145.69;100.00;71688.94;5072961;28;20260;-77
2022/06/08 01:39:06;;;;;;;11.90;5.00;;;;;;;-145.69;100.00;71684.97;5073303;28;20203;-78
2022/06/08 01:41:59;;;;;;;19.97;5.63;;;;;;;-145.69;100.00;71688.94;5073180;28;20221;-76
2022/06/08 01:45:28;;;;;;;9.13;4.50;;;;;;;-145.69;100.00;71690.94;5072841;28;20199;-77
2022/06/08 01:47:35;;;;;;;14.73;4.70;;;;;;;-145.69;100.00;71690.94;5072865;28;20714;-77
2022/06/08 01:50:06;;;;;;;9.70;4.33;;;;;;;-145.69;100.00;71698.91;5094916;28;20193;-77
2022/06/08 01:52:41;;;;;;;16.20;4.50;;;;;;;-145.69;100.00;71700.88;5113355;28;20675;-77
2022/06/08 01:55:15;;;;;;;10.67;4.27;;;;;;;-145.69;100.00;71714.81;5113208;28;20779;-78
2022/06/08 02:01:04;;;;;;;10.47;4.87;;;;;;;-145.69;100.00;71722.78;5049303;28;20238;-78
2022/06/08 02:03:35;;;;;;;9.60;4.57;;;;;;;-145.69;100.00;71724.75;5050577;28;20206;-77
2022/06/08 02:06:07;;;;;;;15.43;4.57;;;;;;;-145.69;100.00;71722.78;5050103;28;20231;-77
2022/06/08 02:08:42;;;;;;;9.93;4.37;;;;;;;-145.69;100.00;71730.72;5050742;28;20299;-78
2022/06/08 02:11:16;;;;;;;14.07;4.07;;;;;;;-145.69;100.00;71744.66;5050465;28;20198;-77
2022/06/08 02:13:46;;;;;;;16.77;4.70;;;;;;;-145.69;100.00;71732.72;5050667;28;20196;-78
2022/06/08 02:16:17;;;;;;;14.90;4.80;;;;;;;-145.69;100.00;71730.72;5053287;28;20272;-78
2022/06/08 02:18:48;;;;;;;15.03;4.90;;;;;;;-145.69;100.00;71736.72;5054568;28;20207;-78
2022/06/08 02:21:20;;;;;;;14.03;4.73;;;;;;;-145.69;100.00;71720.78;5054340;28;20203;-77
2022/06/08 02:23:50;;;;;;;17.93;4.73;;;;;;;-145.69;100.00;71718.78;5063432;28;20199;-77
2022/06/08 02:26:22;;;;;;;17.87;5.27;;;;;;;-145.69;100.00;71716.81;5059024;28;20701;-76
2022/06/08 02:28:53;;;;;;;13.47;5.40;;;;;;;-145.69;100.00;71714.81;5053929;28;20206;-77
2022/06/08 02:31:23;;;;;;;14.50;4.77;;;;;;;-145.69;100.00;71712.81;5072368;28;20205;-77
2022/06/08 02:36:43;;;;;;;12.07;4.70;;;;;;;-145.69;100.00;71720.78;5097051;28;20197;-77
2022/06/08 02:39:14;;;;;;;15.77;4.83;;;;;;;-145.69;100.00;71720.78;5096431;28;20202;-77
2022/06/08 02:41:44;;;;;;;10.40;4.50;;;;;;;-145.69;100.00;71720.78;5096682;28;20259;-77
2022/06/08 02:46:50;;;;;;;15.50;5.40;;;;;;;-145.69;100.00;71712.81;4197039;22;20229;-77
2022/06/08 02:49:17;;;;;;;13.30;5.23;;;;;;;-145.69;100.00;71706.84;4977163;28;20210;-77
2022/06/08 02:51:47;;;;;;;15.20;4.90;;;;;;;-145.69;100.00;71710.84;4977173;28;20202;-78
2022/06/08 02:54:17;;;;;;;10.27;4.83;;;;;;;-145.69;100.00;71712.81;4977037;28;20656;-77
2022/06/08 02:56:55;;;;;;;14.53;4.00;;;;;;;-145.69;100.00;71722.78;4984782;28;20198;-78
2022/06/08 02:59:28;;;;;;;15.17;4.73;;;;;;;-145.69;100.00;71726.75;4996380;28;20197;-78
2022/06/08 03:02:03;;;;;;;14.17;5.07;;;;;;;-145.69;100.00;71724.75;4996407;28;20202;-77
2022/06/08 03:04:33;;;;;;;11.60;4.53;;;;;;;-145.69;100.00;71724.75;4996613;28;20201;-77
2022/06/08 03:07:04;;;;;;;20.53;5.37;;;;;;;-145.69;100.00;71718.78;4996228;28;20226;-78
2022/06/08 03:09:32;;;;;;;10.67;4.83;;;;;;;-145.69;100.00;71710.84;4996102;28;20276;-78
2022/06/08 03:12:02;;;;;;;14.70;4.87;;;;;;;-145.69;100.00;71706.84;4996311;28;20206;-78
2022/06/08 03:14:30;;;;;;;13.73;6.28;;;;;;;-145.69;100.00;71700.88;4995033;28;20436;-78
2022/06/08 03:16:59;;;;;;;9.97;5.20;;;;;;;-145.69;100.00;71704.88;4995658;28;20281;-77
2022/06/08 03:19:26;;;;;;;14.37;4.93;;;;;;;-145.69;100.00;71700.88;4996296;28;20201;-79
2022/06/08 03:21:54;;;;;;;10.30;4.67;;;;;;;-145.69;100.00;71698.91;4996256;28;20201;-78
2022/06/08 03:24:22;;;;;;;13.23;5.70;;;;;;;-145.69;100.00;71696.91;4995748;28;20300;-78
2022/06/08 03:26:51;;;;;;;15.77;4.83;;;;;;;-145.69;100.00;71704.88;4995073;28;20233;-78
2022/06/08 03:29:20;;;;;;;13.07;4.67;;;;;;;-145.69;100.00;71718.78;4995834;28;20665;-78
2022/06/08 03:31:47;;;;;;;15.23;4.83;;;;;;;-145.69;100.00;71720.78;4995964;28;20202;-78
2022/06/08 03:34:13;;;;;;;9.47;4.27;;;;;;;-145.69;100.00;71714.81;4995968;28;20212;-77
2022/06/08 03:36:40;;;;;;;16.57;5.07;;;;;;;-145.69;100.00;71696.91;4995391;28;20686;-77
2022/06/08 03:39:07;;;;;;;16.10;4.77;;;;;;;-145.69;100.00;71692.94;4995541;28;20678;-77
2022/06/08 03:41:34;;;;;;;19.53;5.37;;;;;;;-145.69;100.00;71686.97;4995736;28;20209;-78
2022/06/08 03:44:03;;;;;;;22.10;5.43;;;;;;;-145.69;100.00;71684.97;4995561;28;20205;-77
2022/06/08 03:46:36;;;;;;;11.37;4.77;;;;;;;-145.69;100.00;71692.94;4995162;28;20719;-78
2022/06/08 03:49:04;;;;;;;19.10;5.03;;;;;;;-145.69;100.00;71686.97;4993134;28;20232;-78
2022/06/08 03:51:32;;;;;;;16.60;5.20;;;;;;;-145.69;100.00;71677.00;4995364;28;20205;-78
2022/06/08 03:54:03;;;;;;;13.17;5.20;;;;;;;-145.69;100.00;71671.03;4995430;28;20209;-78
2022/06/08 03:56:33;;;;;;;14.47;5.00;;;;;;;-145.69;100.00;71669.03;4995257;28;20206;-78
2022/06/08 03:59:00;;;;;;;14.20;5.67;;;;;;;-145.69;100.00;71659.09;4995161;28;20213;-78
2022/06/08 04:01:28;;;;;;;13.00;5.10;;;;;;;-145.69;100.00;71659.09;4995077;28;20205;-78
2022/06/08 04:03:55;;;;;;;16.83;5.30;;;;;;;-145.69;100.00;71653.13;4995563;28;20197;-78
2022/06/08 04:06:23;;;;;;;15.57;5.70;;;;;;;-145.69;100.00;71641.19;4995254;28;20232;-78
2022/06/08 04:08:50;;;;;;;17.43;5.47;;;;;;;-145.69;100.00;71625.25;4995279;28;20300;-77
2022/06/08 04:11:17;;;;;;;13.77;5.47;;;;;;;-145.69;100.00;71615.31;4994872;28;20252;-79
2022/06/08 04:13:43;;;;;;;10.63;5.07;;;;;;;-145.69;100.00;71615.31;4995222;28;20205;-78
2022/06/08 04:16:10;;;;;;;14.97;4.90;;;;;;;-145.69;100.00;71609.34;4994985;28;20715;-78
2022/06/08 04:18:36;;;;;;;18.50;5.20;;;;;;;-145.69;100.00;71613.31;4994847;28;20206;-79
2022/06/08 04:21:08;;;;;;;15.80;5.60;;;;;;;-145.69;100.00;71605.38;4994705;28;20197;-78
2022/06/08 04:23:35;;;;;;;13.73;5.53;;;;;;;-145.69;100.00;71601.38;4994735;28;20201;-79
2022/06/08 04:26:02;;;;;;;16.00;5.60;;;;;;;-145.69;100.00;71593.44;4994756;28;20209;-79
2022/06/08 04:28:30;;;;;;;9.37;4.93;;;;;;;-145.69;100.00;71587.47;4993943;28;20201;-79
2022/06/08 04:30:57;;;;;;;14.67;4.97;;;;;;;-145.69;100.00;71583.47;4994379;28;20200;-78
2022/06/08 04:33:23;;;;;;;22.43;5.63;;;;;;;-145.69;100.00;71583.47;4994790;28;20202;-78
2022/06/08 04:35:50;;;;;;;18.07;5.27;;;;;;;-145.69;100.00;71571.53;4994625;28;20206;-79
2022/06/08 04:38:18;;;;;;;16.47;5.40;;;;;;;-145.69;100.00;71557.59;4993701;28;20209;-79
2022/06/08 04:40:46;;;;;;;10.70;4.67;;;;;;;-145.69;100.00;71537.72;4994403;28;20202;-78
2022/06/08 04:43:13;;;;;;;13.70;4.97;;;;;;;-145.69;100.00;71533.72;4994745;28;20274;-80
2022/06/08 04:45:40;;;;;;;18.03;5.33;;;;;;;-145.69;100.00;71521.78;4994373;28;20201;-79
2022/06/08 04:48:08;;;;;;;13.40;5.07;;;;;;;-145.69;100.00;71509.84;4994335;28;20738;-79
2022/06/08 04:50:34;;;;;;;14.60;4.30;;;;;;;-145.69;100.00;71503.88;4993779;28;20198;-80
2022/06/08 04:53:01;;;;;;;16.33;5.03;;;;;;;-145.69;100.00;71487.97;4993976;28;20205;-79
2022/06/08 04:55:29;;;;;;;10.83;4.57;;;;;;;-145.69;100.00;71485.97;4994329;28;20198;-78
2022/06/08 04:57:55;;;;;;;16.90;4.80;;;;;;;-145.69;100.00;71483.97;4994194;28;20663;-79
2022/06/08 05:00:23;;;;;;;17.23;5.50;;;;;;;-145.69;100.00;71478.00;4992932;28;20458;-79
2022/06/08 05:02:52;;;;;;;15.77;4.90;;;;;;;-145.69;100.00;71478.00;4994093;28;20213;-79
2022/06/08 05:05:21;;;;;;;8.07;3.70;;;;;;;-145.69;100.00;71476.03;4993665;28;20204;-79
2022/06/08 05:07:47;;;;;;;10.53;4.00;;;;;;;-145.69;100.00;71462.09;4993885;28;20229;-79
2022/06/08 05:10:14;;;;;;;11.07;3.77;;;;;;;-145.69;100.00;71454.13;4993956;28;20536;-79
2022/06/08 05:12:43;;;;;;;16.03;3.97;;;;;;;-145.69;100.00;71446.16;4994165;28;20206;-79
2022/06/08 05:15:13;;;;;;;11.23;3.77;;;;;;;-145.69;100.00;71448.16;4994102;28;20206;-79
2022/06/08 05:17:39;;;;;;;15.43;4.40;;;;;;;-145.69;100.00;71438.22;4993784;28;20209;-79
2022/06/08 05:20:08;;;;;;;11.43;4.10;;;;;;;-145.69;100.00;71430.25;4994107;28;20660;-79
2022/06/08 05:22:36;;;;;;;10.47;3.80;;;;;;;-145.69;100.00;71434.22;4994290;28;20279;-79
2022/06/08 05:25:04;;;;;;;17.13;3.93;;;;;;;-145.69;100.00;71416.31;4993919;28;20259;-79
2022/06/08 05:27:31;;;;;;;7.53;3.73;;;;;;;-145.69;100.00;71402.41;4993755;28;20280;-79
2022/06/08 05:29:58;;;;;;;8.87;3.57;;;;;;;-145.69;100.00;71402.41;4993997;28;20205;-79
2022/06/08 05:32:25;;;;;;;7.63;3.77;;;;;;;-145.69;100.00;71384.47;4993899;28;20200;-79
2022/06/08 05:34:51;;;;;;;9.38;3.85;;;;;;;-145.69;100.00;71380.50;4993294;28;20448;-79
2022/06/08 05:37:18;;;;;;;12.20;3.30;;;;;;;-145.69;100.00;71374.53;4993830;28;20622;-79
2022/06/08 05:39:44;;;;;;;12.93;3.37;;;;;;;-145.69;100.00;71374.53;4993088;28;20206;-80
2022/06/08 05:42:11;;;;;;;9.17;3.47;;;;;;;-145.69;100.00;71362.59;4993362;28;20453;-80
2022/06/08 05:44:37;;;;;;;11.73;3.50;;;;;;;-145.69;100.00;71338.72;4993744;28;20214;-80
2022/06/08 05:47:06;;;;;;;8.40;3.40;;;;;;;-145.69;100.00;71334.75;4993412;28;20244;-79
2022/06/08 05:49:34;;;;;;;10.83;3.07;;;;;;;-145.69;100.00;71334.75;4993370;28;20194;-80
2022/06/08 05:52:02;;;;;;;8.07;2.97;;;;;;;-145.69;100.00;71320.81;4993852;28;20225;-80
2022/06/08 05:54:29;;;;;;;12.63;3.20;;;;;;;-145.69;100.00;71302.91;4993752;28;20268;-81
2022/06/08 05:56:56;;;;;;;9.23;3.33;;;;;;;-145.69;100.00;71277.03;4993705;28;20660;-80
2022/06/08 05:59:24;;;;;;;9.43;3.43;;;;;;;-145.69;100.00;71271.06;4993358;28;20198;-79
2022/06/08 06:01:50;;;;;;;12.00;3.10;;;;;;;-145.69;100.00;71261.13;4993788;28;20205;-79
2022/06/08 06:04:18;;;;;;;9.60;2.80;;;;;;;-145.69;100.00;71253.16;4993860;28;20197;-79
2022/06/08 06:06:46;;;;;;;6.50;2.73;;;;;;;-145.69;100.00;71237.25;4993641;28;20232;-79
2022/06/08 06:09:13;;;;;;;7.53;3.20;;;;;;;-145.69;100.00;71197.44;4993363;28;20206;-80
2022/06/08 06:11:40;;;;;;;10.60;3.22;;;;;;;-145.69;100.00;71193.47;4992183;28;20441;-80
2022/06/08 06:14:08;;;;;;;6.63;2.87;;;;;;;-145.69;100.00;71185.50;4993453;28;20251;-80
2022/06/08 06:16:34;;;;;;;11.00;2.50;;;;;;;-145.69;100.00;71159.63;4993755;28;20579;-80
2022/06/08 06:19:01;;;;;;;7.53;2.83;;;;;;;-145.69;100.00;71133.78;4993380;28;20213;-81
2022/06/08 06:21:29;;;;;;;9.57;2.92;;;;;;;-145.69;100.00;71095.97;4992753;28;20197;-81
2022/06/08 06:23:57;;;;;;;5.10;3.03;;;;;;;-145.69;100.00;71042.25;4992911;28;20206;-82
2022/06/08 06:26:23;;;;;;;8.18;2.58;;;;;;;-145.69;100.00;71016.38;4993145;28;20656;-82
2022/06/08 06:28:50;;;;;;;6.43;1.85;;;;;;;-145.69;100.00;71028.31;4993070;28;20698;-81
2022/06/08 06:31:20;;;;;;;14.77;2.67;;;;;;;-145.69;100.00;70960.66;4992877;28;20568;-81
2022/06/08 06:33:47;;;;;;;5.30;1.85;;;;;;;-145.69;100.00;70916.91;4993390;28;20197;-82
2022/06/08 06:36:14;;;;;;;6.63;2.30;;;;;;;-145.69;100.00;70873.13;4992924;28;20690;-82
2022/06/08 06:38:41;;;;;;;9.18;2.50;;;;;;;-145.69;100.00;70853.22;4992671;28;20201;-82
2022/06/08 06:41:08;;;;;;;7.25;1.92;;;;;;;-145.69;100.00;70877.09;4993217;28;20212;-80
2022/06/08 06:43:35;;;;;;;3.30;1.30;;;;;;;-145.69;100.00;70912.91;4993407;28;20209;-81
2022/06/08 06:46:01;;;;;;;4.75;1.70;;;;;;;-145.69;100.00;70904.97;4992942;28;20234;-81
2022/06/08 06:48:28;;;;;;;7.15;1.67;;;;;;;-145.69;100.00;70877.09;4992752;28;20225;-81
2022/06/08 06:50:54;;;;;;;6.30;1.63;;;;;;;-145.69;100.00;70869.16;4993116;28;20209;-81
2022/06/08 06:53:21;;;;;;;5.82;1.75;;;;;;;-145.69;100.00;70871.13;4992747;28;20575;-81
2022/06/08 06:55:48;;;;;;;8.18;2.13;;;;;;;-145.69;100.00;70843.28;4992955;28;20201;-83
2022/06/08 06:58:15;;;;;;;7.82;1.40;;;;;;;-145.69;100.00;70837.31;4992331;28;20528;-83
2022/06/08 07:00:42;;;;;;;6.13;1.75;;;;;;;-145.69;100.00;70813.44;4993169;28;20202;-82
2022/06/08 07:03:10;;;;;;;4.78;1.70;;;;;;;-145.69;100.00;70821.41;4995582;28;20346;-82
2022/06/08 07:05:37;;;;;;;6.03;1.60;;;;;;;-145.69;100.00;70813.44;4996456;28;20212;-83
2022/06/08 07:08:09;;;;;;;5.88;1.42;;;;;;;-145.69;100.00;70793.53;4995539;28;20713;-82
2022/06/08 07:10:37;;;;;;;5.30;1.58;;;;;;;-145.69;100.00;70769.66;4996102;28;20284;-83
2022/06/08 07:13:06;;;;;;;5.97;1.35;;;;;;;-145.69;100.00;70749.78;4996280;28;20236;-84
2022/06/08 07:15:32;;;;;;;5.22;1.58;;;;;;;-145.69;100.00;70739.81;4996220;28;20206;-83
2022/06/08 07:18:01;;;;;;;6.82;1.10;;;;;;;-145.69;100.00;70729.88;4995694;28;20293;-83
2022/06/08 07:20:28;;;;;;;3.28;1.00;;;;;;;-145.69;100.00;70694.06;4995973;28;20201;-84
2022/06/08 07:22:56;;;;;;;6.65;1.00;;;;;;;-145.69;100.00;70721.91;4995592;28;20648;-84
2022/06/08 07:25:26;;;;;;;5.72;1.10;;;;;;;-145.69;100.00;70704.00;4995932;28;20202;-84
2022/06/08 07:27:52;;;;;;;6.65;1.65;;;;;;;-145.69;99.78;70694.06;4995485;28;20229;-84
2022/06/08 07:30:23;;;;;;;4.10;1.10;;;;;;;-145.69;100.00;70678.16;4996071;28;20213;-84
2022/06/08 07:32:50;;;;;;;4.63;1.60;;;;;;;-145.69;100.00;70646.31;4995838;28;20288;-85
2022/06/08 07:35:19;;;;;;;6.70;1.20;;;;;;;-145.69;90.24;70634.38;4995829;28;20208;-84
2022/06/08 07:37:46;;;;;;;3.03;1.02;;;;;;;-145.69;100.00;70574.69;4995671;28;20206;-84
2022/06/08 07:40:13;;;;;;;5.85;1.33;;;;;;;-145.69;95.15;70544.84;4996004;28;20202;-83
2022/06/08 07:42:39;;;;;;;3.13;0.95;;;;;;;-145.69;83.68;70507.06;4995683;28;20284;-86
2022/06/08 07:45:09;;;;;;;4.22;1.17;;;;;;;-145.69;88.77;70507.06;4996657;28;20215;-85
2022/06/08 07:50:21;;;;;;;4.85;0.90;;;;;;;-145.69;77.67;70461.31;4994205;28;20432;-85
2022/06/08 07:52:48;;;;;;;4.18;1.20;;;;;;;-145.69;77.05;70451.34;4995435;28;20682;-86
2022/06/08 07:55:14;;;;;;;5.32;1.50;;;;;;;-145.69;71.27;70499.09;4992537;28;20197;-85
2022/06/08 07:57:41;;;;;;;4.07;1.10;;;;;;;-145.69;81.84;70445.38;4994764;28;20527;-86
2022/06/08 08:00:10;;;;;;;6.18;1.33;;;;;;;-145.69;74.51;70449.38;4995149;28;20284;-86
2022/06/08 08:02:37;;;;;;;2.95;1.08;;;;;;;-145.69;75.80;70377.75;4995228;28;20205;-85
2022/06/08 08:05:09;;;;;;;6.10;0.70;;;;;;;-145.69;68.50;70427.47;4995462;28;20292;-85
2022/06/08 08:07:36;;;;;;;3.00;0.88;;;;;;;-145.69;67.28;70421.50;4994727;28;20228;-87
2022/06/08 08:10:04;;;;;;;1.40;0.93;;;;;;;-145.69;68.63;70365.81;4995082;28;20205;-82
2022/06/08 08:12:30;;;;;;;3.30;0.90;;;;;;;-145.69;71.39;70316.06;4994763;28;20690;-83
2022/06/08 08:14:57;;;;;;;3.78;1.05;;;;;;;-145.69;66.90;70308.13;4994917;28;20202;-83
2022/06/08 08:17:25;;;;;;;2.42;0.77;;;;;;;-145.69;65.14;70359.84;4995061;28;20245;-82
2022/06/08 08:19:53;;;;;;;5.93;1.02;;;;;;;-145.69;70.66;70341.94;4993897;28;20206;-83
2022/06/08 08:22:21;;;;;;;4.63;0.90;;;;;;;-145.69;63.99;70284.25;4994982;28;20234;-83
2022/06/08 08:24:52;;;;;;;1.73;0.60;;;;;;;-145.69;68.89;70244.47;4994836;28;20202;-80
2022/06/08 08:27:19;;;;;;;2.60;0.90;;;;;;;-145.69;68.16;70240.47;4994565;28;20644;-80
2022/06/08 08:29:45;;;;;;;4.50;0.80;;;;;;;-145.69;55.52;70326.03;4994622;28;20205;-80
2022/06/08 08:32:12;;;;;;;2.60;0.70;;;;;;;-145.69;59.15;70417.53;4994479;28;20441;-81
2022/06/08 08:34:38;;;;;;;2.55;0.80;;;;;;;-145.69;63.28;70439.41;4994614;28;20663;-82
2022/06/08 08:37:05;;;;;;;4.10;0.70;;;;;;;-145.69;66.28;70455.34;4994532;28;20205;-81
2022/06/08 08:39:34;;;;;;;3.85;0.85;;;;;;;-145.69;64.03;70435.44;4994265;28;20202;-81
2022/06/08 08:44:48;;;;;;;3.22;0.82;;;;;;;-145.69;62.14;70383.72;4994482;28;20285;-81
2022/06/08 08:47:24;;;;;;;3.28;0.82;;;;;;;-145.69;59.74;70431.47;4994012;28;20229;-79
2022/06/08 08:49:56;;;;;;;3.85;1.00;;;;;;;-145.69;65.51;70445.38;4994217;28;20224;-81
2022/06/08 08:52:32;;;;;;;2.90;0.90;;;;;;;-145.69;67.17;70405.59;4994048;28;20264;-80
2022/06/08 08:55:09;;;;;;;3.72;1.02;;;;;;;-145.69;60.79;70411.56;4994148;28;20259;-80
2022/06/08 08:57:43;;;;;;;7.00;0.70;;;;;;;-145.69;59.89;70373.78;4994208;28;20323;-81
2022/06/08 09:00:19;;;;;;;1.05;0.68;;;;;;;-145.69;64.38;70333.97;4974861;28;20205;-81
2022/06/08 09:05:32;;;;;;;7.03;0.85;;;;;;;-145.69;65.26;70359.84;4974646;28;20565;-79
2022/06/08 09:07:58;;;;;;;2.47;0.65;;;;;;;-145.69;54.31;70335.97;4976816;28;20222;-80
2022/06/08 09:10:27;;;;;;;1.83;0.82;;;;;;;-145.69;57.45;70320.06;4993733;28;20694;-80
2022/06/08 09:12:55;;;;;;;4.13;0.70;;;;;;;-145.69;64.13;70318.06;4974503;28;20209;-81
2022/06/08 09:15:48;;;;;;;3.75;0.90;;;;;;;-145.69;60.19;70268.34;4974374;28;20276;-79
2022/06/08 09:18:20;;;;;;;1.27;0.57;;;;;;;-145.69;59.70;70278.28;4964994;28;20208;-80
2022/06/08 09:20:47;;;;;;;2.70;0.70;;;;;;;-145.69;58.98;70326.03;4976433;28;20214;-79
2022/06/08 09:23:31;;;;;;;2.63;0.80;;;;;;;-145.69;58.63;70367.81;4993812;28;20683;-79
2022/06/08 09:26:07;;;;;;;5.20;1.02;;;;;;;-145.69;52.13;70415.53;4993278;28;20202;-79
2022/06/08 09:28:35;;;;;;;3.75;0.90;;;;;;;-145.69;56.81;70363.81;4993879;28;20299;-79
2022/06/08 09:31:05;;;;;;;8.45;1.25;;;;;;;-145.69;54.82;70335.97;4993278;28;20217;-79
2022/06/08 09:33:35;;;;;;;5.38;1.10;;;;;;;-145.69;60.14;70280.28;4993764;28;20212;-79
2022/06/08 09:36:04;;;;;;;4.85;1.00;;;;;;;-145.69;55.57;70198.72;4992312;28;20491;-79
2022/06/08 09:38:37;;;;;;;5.43;1.00;;;;;;;-145.69;49.51;70188.75;4994076;28;20292;-79
2022/06/08 09:41:15;;;;;;;2.35;0.60;;;;;;;-145.69;57.40;70109.19;4991417;28;20194;-83
2022/06/08 09:44:16;;;;;;;3.30;0.60;;;;;;;-145.69;43.66;70065.44;4993133;28;20208;-80
2022/06/08 09:52:44;;;;;;;2.20;0.63;;;;;;;-145.69;46.63;70200.69;4972693;28;20205;-80
2022/06/08 09:55:24;;;;;;;0.95;0.47;;;;;;;-145.69;46.96;70242.47;4993237;28;20664;-81
2022/06/08 09:57:59;;;;;;;2.17;0.60;;;;;;;-145.69;50.33;70252.41;4993587;28;20259;-79
2022/06/08 10:00:33;;;;;;;1.83;0.60;;;;;;;-145.69;47.70;70276.28;4993140;28;20249;-80
2022/06/08 10:03:21;;;;;;;3.45;0.63;;;;;;;-145.69;51.10;70236.50;4993149;28;20659;-79
2022/06/08 10:05:56;;;;;;;2.40;0.70;;;;;;;-145.69;47.99;70200.69;4993449;28;20201;-80
2022/06/08 10:08:25;;;;;;;5.60;1.00;;;;;;;-145.69;48.53;70208.66;4993250;28;20233;-78
2022/06/08 10:11:02;;;;;;;3.35;0.60;;;;;;;-145.69;47.96;70192.75;4993169;28;20206;-80
2022/06/08 10:13:35;;;;;;;4.38;0.90;;;;;;;-145.69;51.73;70232.53;4993273;28;20213;-80
2022/06/08 10:16:05;;;;;;;4.18;0.80;;;;;;;-145.69;48.11;70256.41;4993403;28;20205;-79
2022/06/08 10:18:38;;;;;;;3.83;1.25;;;;;;;-145.69;56.25;70202.69;4993107;28;20205;-79
2022/06/08 10:21:12;;;;;;;1.83;0.80;;;;;;;-145.69;48.80;70156.94;4992117;28;20448;-79
2022/06/08 10:23:50;;;;;;;3.30;0.70;;;;;;;-145.69;52.97;70129.09;4992463;28;20204;-79
2022/06/08 10:26:23;;;;;;;2.78;0.70;;;;;;;-145.69;49.92;70125.09;4992838;28;20209;-80
2022/06/08 10:28:56;;;;;;;4.45;0.80;;;;;;;-145.69;50.14;70158.94;4993290;28;20225;-81
2022/06/08 10:31:31;;;;;;;3.60;0.80;;;;;;;-145.69;50.39;70109.19;4993073;28;20716;-79
2022/06/08 10:34:05;;;;;;;1.90;0.55;;;;;;;-145.69;49.66;70025.66;4993064;28;20201;-81
2022/06/08 10:36:34;;;;;;;4.00;0.95;;;;;;;-145.69;48.26;70001.78;4993084;28;20208;-80
2022/06/08 10:39:03;;;;;;;2.38;0.88;;;;;;;-145.69;49.75;70005.75;4997011;28;20300;-79
2022/06/08 10:44:34;;;;;;;1.60;0.57;;;;;;;-145.69;45.11;70081.34;4996774;28;20205;-80
2022/06/08 10:47:21;;;;;;;2.78;1.00;;;;;;;-145.69;48.38;70089.31;4996460;28;20370;-80
2022/06/08 10:49:51;;;;;;;1.83;0.68;;;;;;;-145.69;45.09;70061.44;4996726;28;20452;-80
2022/06/08 10:52:28;;;;;;;2.28;0.60;;;;;;;-145.69;44.38;70001.78;4996559;28;20198;-82
2022/06/08 10:55:16;;;;;;;2.38;0.80;;;;;;;-145.69;45.06;69971.94;4996262;28;20201;-81
2022/06/08 10:57:49;;;;;;;4.05;0.80;;;;;;;-145.69;46.50;69916.25;4976413;28;20236;-80
2022/06/08 11:00:25;;;;;;;1.25;0.55;;;;;;;-145.69;52.90;69894.38;4976968;28;20301;-79
2022/06/08 11:02:56;;;;;;;4.28;0.90;;;;;;;-145.69;50.79;69870.50;4977130;28;20202;-81
2022/06/08 11:05:32;;;;;;;2.63;0.80;;;;;;;-145.69;49.83;69874.47;4979205;28;20205;-81
2022/06/08 11:08:17;;;;;;;1.42;0.70;;;;;;;-145.69;47.96;69938.13;4996244;28;20624;-80
2022/06/08 11:11:03;;;;;;;2.10;0.70;;;;;;;-145.69;45.42;69884.41;4996306;28;20203;-82
2022/06/08 11:13:38;;;;;;;4.78;0.88;;;;;;;-145.69;45.89;69852.59;4996214;28;20205;-80
2022/06/08 11:16:16;;;;;;;2.83;0.82;;;;;;;-145.69;45.91;69918.22;4995707;28;20198;-81
2022/06/08 11:18:47;;;;;;;1.92;0.63;;;;;;;-145.69;44.65;69946.09;4996234;28;20229;-81
2022/06/08 11:21:42;;;;;;;2.45;0.77;;;;;;;-145.69;51.60;69856.56;4996115;28;20209;-81
2022/06/08 11:24:24;;;;;;;4.22;0.70;;;;;;;-145.69;51.34;69775.00;4995793;28;20309;-80
2022/06/08 11:27:24;;;;;;;2.40;0.82;;;;;;;-145.69;49.18;69711.38;4996247;28;20225;-79
2022/06/08 11:29:53;;;;;;;3.72;0.85;;;;;;;-145.69;43.97;69651.69;4992384;28;20226;-81
2022/06/08 11:33:03;;;;;;;3.07;0.60;;;;;;;-145.69;50.79;69631.81;4994655;28;20441;-82
2022/06/08 11:35:50;;;;;;;2.30;0.60;;;;;;;-145.69;41.31;69611.91;4995435;28;20201;-80
2022/06/08 11:38:26;;;;;;;4.05;0.70;;;;;;;-145.69;44.60;69576.13;4995901;28;20224;-80
2022/06/08 11:41:14;;;;;;;2.80;0.70;;;;;;;-145.69;39.78;69643.75;4995670;28;20205;-81
2022/06/08 11:43:41;;;;;;;2.15;0.50;;;;;;;-145.69;39.88;69643.75;4995598;28;20205;-80
2022/06/08 11:46:21;;;;;;;2.78;0.52;;;;;;;-145.69;48.82;69617.88;4975909;28;20704;-80
2022/06/08 11:48:49;;;;;;;1.20;0.40;;;;;;;-145.69;39.68;69588.06;4975580;28;20687;-81
2022/06/08 11:51:29;;;;;;;1.70;0.50;;;;;;;-145.69;37.92;69570.16;4975930;28;20265;-80